Terminal Aerodrome Forecast
Issued by NWS Mt. Holly, NJ

Home | Current Version | Previous Version | Text Only | Print | Product List | Glossary On
Versions: 1 2 3 4 5 6 7 8 9 10 11 12 13 14 15 16 17 18 19
000
FTUS41 KPHI 291301 AAA
TAFACY
TAF AMD
KACY 291301Z 2913/3012 05010KT P6SM OVC006
      TEMPO 2918/2922 BKN012
     FM300000 08008KT P6SM OVC012
     FM300200 08006KT 4SM BR BKN008
     FM300500 10004KT 2SM -DZ BR BKN003=

USA.gov is the U.S. government's official web portal to all federal, state and local government web resources and services.